sensor_id;sensor_type;location;lat;lon;timestamp;P1;durP1;ratioP1;P2;durP2;ratioP2
17133;SDS011;8682;52.120;5.252;2023-02-01T00:00:20;1999.90;;;999.90;;
17133;SDS011;8682;52.120;5.252;2023-02-01T00:02:47;1999.90;;;999.90;;
17133;SDS011;8682;52.120;5.252;2023-02-01T00:05:16;1999.90;;;999.90;;
17133;SDS011;8682;52.120;5.252;2023-02-01T00:07:44;1999.90;;;999.90;;
17133;SDS011;8682;52.120;5.252;2023-02-01T00:10:13;1999.90;;;999.90;;
17133;SDS011;8682;52.120;5.252;2023-02-01T00:12:40;1545.00;;;723.93;;
17133;SDS011;8682;52.120;5.252;2023-02-01T00:15:07;1999.90;;;999.90;;
17133;SDS011;8682;52.120;5.252;2023-02-01T00:17:35;1505.20;;;721.50;;
17133;SDS011;8682;52.120;5.252;2023-02-01T00:20:02;1999.90;;;999.90;;
17133;SDS011;8682;52.120;5.252;2023-02-01T00:22:30;1999.90;;;999.90;;
17133;SDS011;8682;52.120;5.252;2023-02-01T00:24:58;1999.90;;;999.90;;
17133;SDS011;8682;52.120;5.252;2023-02-01T00:27:25;1999.90;;;999.90;;
17133;SDS011;8682;52.120;5.252;2023-02-01T00:29:53;1999.90;;;999.90;;
17133;SDS011;8682;52.120;5.252;2023-02-01T00:32:21;1999.90;;;999.90;;
17133;SDS011;8682;52.120;5.252;2023-02-01T00:34:48;1999.90;;;999.90;;
17133;SDS011;8682;52.120;5.252;2023-02-01T00:37:15;1999.90;;;999.90;;
17133;SDS011;8682;52.120;5.252;2023-02-01T00:39:43;1999.90;;;999.90;;
17133;SDS011;8682;52.120;5.252;2023-02-01T00:42:11;1999.90;;;999.90;;
17133;SDS011;8682;52.120;5.252;2023-02-01T00:44:38;1999.90;;;999.90;;
17133;SDS011;8682;52.120;5.252;2023-02-01T00:47:05;1999.90;;;999.90;;
17133;SDS011;8682;52.120;5.252;2023-02-01T00:49:32;1999.90;;;999.90;;
17133;SDS011;8682;52.120;5.252;2023-02-01T00:51:59;1500.23;;;684.17;;
17133;SDS011;8682;52.120;5.252;2023-02-01T00:54:26;1999.90;;;999.90;;
17133;SDS011;8682;52.120;5.252;2023-02-01T00:56:55;1999.90;;;999.90;;
17133;SDS011;8682;52.120;5.252;2023-02-01T00:59:22;1999.90;;;999.90;;
17133;SDS011;8682;52.120;5.252;2023-02-01T01:01:49;1999.90;;;999.90;;
17133;SDS011;8682;52.120;5.252;2023-02-01T01:04:16;1999.90;;;999.90;;
17133;SDS011;8682;52.120;5.252;2023-02-01T01:06:43;1634.50;;;672.37;;
17133;SDS011;8682;52.120;5.252;2023-02-01T01:09:10;1999.90;;;999.90;;
17133;SDS011;8682;52.120;5.252;2023-02-01T01:11:38;1999.90;;;999.90;;
17133;SDS011;8682;52.120;5.252;2023-02-01T01:14:07;1712.00;;;803.07;;
17133;SDS011;8682;52.120;5.252;2023-02-01T01:16:34;1529.13;;;690.83;;
17133;SDS011;8682;52.120;5.252;2023-02-01T01:19:02;1744.37;;;850.43;;
17133;SDS011;8682;52.120;5.252;2023-02-01T01:21:29;1046.50;;;502.00;;
17133;SDS011;8682;52.120;5.252;2023-02-01T01:23:56;1204.90;;;522.07;;
17133;SDS011;8682;52.120;5.252;2023-02-01T01:26:24;995.83;;;445.07;;
17133;SDS011;8682;52.120;5.252;2023-02-01T01:28:53;811.97;;;295.60;;
17133;SDS011;8682;52.120;5.252;2023-02-01T01:31:22;1311.30;;;645.20;;
17133;SDS011;8682;52.120;5.252;2023-02-01T01:33:50;775.83;;;365.43;;
17133;SDS011;8682;52.120;5.252;2023-02-01T01:36:18;1047.43;;;532.97;;
17133;SDS011;8682;52.120;5.252;2023-02-01T01:38:45;880.40;;;445.57;;
17133;SDS011;8682;52.120;5.252;2023-02-01T01:41:13;913.33;;;393.00;;
17133;SDS011;8682;52.120;5.252;2023-02-01T01:43:46;1255.70;;;634.33;;
17133;SDS011;8682;52.120;5.252;2023-02-01T01:46:15;853.63;;;385.00;;
17133;SDS011;8682;52.120;5.252;2023-02-01T01:48:43;1049.30;;;477.47;;
17133;SDS011;8682;52.120;5.252;2023-02-01T01:51:10;800.03;;;343.77;;
17133;SDS011;8682;52.120;5.252;2023-02-01T01:53:41;842.73;;;427.20;;
17133;SDS011;8682;52.120;5.252;2023-02-01T01:56:10;922.20;;;411.03;;
17133;SDS011;8682;52.120;5.252;2023-02-01T01:58:37;940.13;;;446.50;;
17133;SDS011;8682;52.120;5.252;2023-02-01T02:01:04;1115.00;;;486.07;;
17133;SDS011;8682;52.120;5.252;2023-02-01T02:03:32;1084.20;;;497.60;;
17133;SDS011;8682;52.120;5.252;2023-02-01T02:06:01;1392.93;;;683.07;;
17133;SDS011;8682;52.120;5.252;2023-02-01T02:08:29;1076.57;;;431.33;;
17133;SDS011;8682;52.120;5.252;2023-02-01T02:10:56;1390.00;;;675.13;;
17133;SDS011;8682;52.120;5.252;2023-02-01T02:13:26;1195.10;;;578.17;;
17133;SDS011;8682;52.120;5.252;2023-02-01T02:15:58;1094.07;;;491.20;;
17133;SDS011;8682;52.120;5.252;2023-02-01T02:18:31;1458.50;;;630.37;;
17133;SDS011;8682;52.120;5.252;2023-02-01T02:21:12;1032.40;;;384.67;;
17133;SDS011;8682;52.120;5.252;2023-02-01T02:23:51;1474.07;;;677.37;;
17133;SDS011;8682;52.120;5.252;2023-02-01T02:26:33;1084.27;;;492.80;;
17133;SDS011;8682;52.120;5.252;2023-02-01T02:31:50;1037.90;;;487.10;;
17133;SDS011;8682;52.120;5.252;2023-02-01T02:34:23;1370.77;;;601.63;;
17133;SDS011;8682;52.120;5.252;2023-02-01T02:36:55;1999.90;;;999.90;;
17133;SDS011;8682;52.120;5.252;2023-02-01T02:39:28;1382.83;;;651.77;;
17133;SDS011;8682;52.120;5.252;2023-02-01T02:42:01;1738.17;;;833.70;;
17133;SDS011;8682;52.120;5.252;2023-02-01T02:44:47;1491.57;;;693.53;;
17133;SDS011;8682;52.120;5.252;2023-02-01T02:47:35;1338.43;;;675.50;;
17133;SDS011;8682;52.120;5.252;2023-02-01T02:50:08;1708.47;;;781.83;;
17133;SDS011;8682;52.120;5.252;2023-02-01T02:52:55;1554.83;;;700.50;;
17133;SDS011;8682;52.120;5.252;2023-02-01T02:55:41;1391.20;;;663.27;;
17133;SDS011;8682;52.120;5.252;2023-02-01T02:58:09;1999.90;;;999.90;;
17133;SDS011;8682;52.120;5.252;2023-02-01T03:00:55;1263.83;;;575.60;;
17133;SDS011;8682;52.120;5.252;2023-02-01T03:03:41;1116.17;;;545.00;;
17133;SDS011;8682;52.120;5.252;2023-02-01T03:06:28;1382.37;;;648.43;;
17133;SDS011;8682;52.120;5.252;2023-02-01T03:08:56;814.37;;;403.03;;
17133;SDS011;8682;52.120;5.252;2023-02-01T03:11:24;870.10;;;328.13;;
17133;SDS011;8682;52.120;5.252;2023-02-01T03:14:13;1309.93;;;630.10;;
17133;SDS011;8682;52.120;5.252;2023-02-01T03:16:43;1523.67;;;755.73;;
17133;SDS011;8682;52.120;5.252;2023-02-01T03:19:14;1999.90;;;999.90;;
17133;SDS011;8682;52.120;5.252;2023-02-01T03:21:44;1603.43;;;711.10;;
17133;SDS011;8682;52.120;5.252;2023-02-01T03:24:15;1999.90;;;999.90;;
17133;SDS011;8682;52.120;5.252;2023-02-01T03:26:44;1457.83;;;685.03;;
17133;SDS011;8682;52.120;5.252;2023-02-01T03:29:16;1999.90;;;999.90;;
17133;SDS011;8682;52.120;5.252;2023-02-01T03:31:44;1484.33;;;706.03;;
17133;SDS011;8682;52.120;5.252;2023-02-01T03:34:11;1741.27;;;840.07;;
17133;SDS011;8682;52.120;5.252;2023-02-01T03:36:40;1999.90;;;999.90;;
17133;SDS011;8682;52.120;5.252;2023-02-01T03:39:13;1999.90;;;999.90;;
17133;SDS011;8682;52.120;5.252;2023-02-01T03:41:43;1999.90;;;999.90;;
17133;SDS011;8682;52.120;5.252;2023-02-01T03:44:12;1999.90;;;999.90;;
17133;SDS011;8682;52.120;5.252;2023-02-01T03:46:41;1999.90;;;999.90;;
17133;SDS011;8682;52.120;5.252;2023-02-01T03:49:09;1222.40;;;516.60;;
17133;SDS011;8682;52.120;5.252;2023-02-01T03:51:38;1999.90;;;999.90;;
17133;SDS011;8682;52.120;5.252;2023-02-01T03:54:07;1999.90;;;999.90;;
17133;SDS011;8682;52.120;5.252;2023-02-01T03:56:37;1498.93;;;643.63;;
17133;SDS011;8682;52.120;5.252;2023-02-01T03:59:05;1999.90;;;999.90;;
17133;SDS011;8682;52.120;5.252;2023-02-01T04:01:32;1374.13;;;580.37;;
17133;SDS011;8682;52.120;5.252;2023-02-01T04:03:59;1999.90;;;999.90;;
17133;SDS011;8682;52.120;5.252;2023-02-01T04:06:26;1999.90;;;999.90;;
17133;SDS011;8682;52.120;5.252;2023-02-01T04:08:53;1999.90;;;999.90;;
17133;SDS011;8682;52.120;5.252;2023-02-01T04:11:20;1999.90;;;999.90;;
17133;SDS011;8682;52.120;5.252;2023-02-01T04:13:49;1999.90;;;999.90;;
17133;SDS011;8682;52.120;5.252;2023-02-01T04:16:16;1999.90;;;999.90;;
17133;SDS011;8682;52.120;5.252;2023-02-01T04:18:43;1999.90;;;999.90;;
17133;SDS011;8682;52.120;5.252;2023-02-01T04:21:10;1999.90;;;999.90;;
17133;SDS011;8682;52.120;5.252;2023-02-01T04:23:38;1738.30;;;771.77;;
17133;SDS011;8682;52.120;5.252;2023-02-01T04:26:05;1999.90;;;999.90;;
17133;SDS011;8682;52.120;5.252;2023-02-01T04:28:32;1695.07;;;794.40;;
17133;SDS011;8682;52.120;5.252;2023-02-01T04:31:00;1633.33;;;762.80;;
17133;SDS011;8682;52.120;5.252;2023-02-01T04:33:27;1664.73;;;717.93;;
17133;SDS011;8682;52.120;5.252;2023-02-01T04:35:55;1418.97;;;674.50;;
17133;SDS011;8682;52.120;5.252;2023-02-01T04:38:22;1364.97;;;558.80;;
17133;SDS011;8682;52.120;5.252;2023-02-01T04:40:49;1514.97;;;695.03;;
17133;SDS011;8682;52.120;5.252;2023-02-01T04:43:16;1329.50;;;547.37;;
17133;SDS011;8682;52.120;5.252;2023-02-01T04:45:46;1412.37;;;699.30;;
17133;SDS011;8682;52.120;5.252;2023-02-01T04:48:15;1758.13;;;825.30;;
17133;SDS011;8682;52.120;5.252;2023-02-01T04:50:43;988.13;;;434.67;;
17133;SDS011;8682;52.120;5.252;2023-02-01T04:53:12;1465.13;;;686.67;;
17133;SDS011;8682;52.120;5.252;2023-02-01T04:55:39;1512.87;;;698.93;;
17133;SDS011;8682;52.120;5.252;2023-02-01T04:58:06;1999.90;;;999.90;;
17133;SDS011;8682;52.120;5.252;2023-02-01T05:00:33;1999.90;;;999.90;;
17133;SDS011;8682;52.120;5.252;2023-02-01T05:03:01;1999.90;;;999.90;;
17133;SDS011;8682;52.120;5.252;2023-02-01T05:05:29;1999.90;;;999.90;;
17133;SDS011;8682;52.120;5.252;2023-02-01T05:07:57;1999.90;;;999.90;;
17133;SDS011;8682;52.120;5.252;2023-02-01T05:10:24;1999.90;;;999.90;;
17133;SDS011;8682;52.120;5.252;2023-02-01T05:12:51;1999.90;;;999.90;;
17133;SDS011;8682;52.120;5.252;2023-02-01T05:15:36;1999.90;;;999.90;;
17133;SDS011;8682;52.120;5.252;2023-02-01T05:18:03;1999.90;;;999.90;;
17133;SDS011;8682;52.120;5.252;2023-02-01T05:20:32;1999.90;;;999.90;;
17133;SDS011;8682;52.120;5.252;2023-02-01T05:22:59;1999.90;;;999.90;;
17133;SDS011;8682;52.120;5.252;2023-02-01T05:25:26;1244.83;;;539.63;;
17133;SDS011;8682;52.120;5.252;2023-02-01T05:27:53;1209.30;;;502.87;;
17133;SDS011;8682;52.120;5.252;2023-02-01T05:30:21;1999.90;;;999.90;;
17133;SDS011;8682;52.120;5.252;2023-02-01T05:32:49;1999.90;;;999.90;;
17133;SDS011;8682;52.120;5.252;2023-02-01T05:35:16;1999.90;;;999.90;;
17133;SDS011;8682;52.120;5.252;2023-02-01T05:37:44;1695.00;;;810.03;;
17133;SDS011;8682;52.120;5.252;2023-02-01T05:40:11;1999.90;;;999.90;;
17133;SDS011;8682;52.120;5.252;2023-02-01T05:42:39;1999.90;;;999.90;;
17133;SDS011;8682;52.120;5.252;2023-02-01T05:45:06;1789.67;;;838.03;;
17133;SDS011;8682;52.120;5.252;2023-02-01T05:47:34;1324.37;;;572.40;;
17133;SDS011;8682;52.120;5.252;2023-02-01T05:50:02;1667.07;;;798.70;;
17133;SDS011;8682;52.120;5.252;2023-02-01T05:52:29;1999.90;;;999.90;;
17133;SDS011;8682;52.120;5.252;2023-02-01T05:54:58;1999.90;;;999.90;;
17133;SDS011;8682;52.120;5.252;2023-02-01T05:57:25;1999.90;;;999.90;;
17133;SDS011;8682;52.120;5.252;2023-02-01T05:59:53;1999.90;;;999.90;;
17133;SDS011;8682;52.120;5.252;2023-02-01T06:02:20;1232.10;;;507.83;;
17133;SDS011;8682;52.120;5.252;2023-02-01T06:04:49;1999.90;;;999.90;;
17133;SDS011;8682;52.120;5.252;2023-02-01T06:07:16;1999.90;;;999.90;;
17133;SDS011;8682;52.120;5.252;2023-02-01T06:09:43;1999.90;;;999.90;;
17133;SDS011;8682;52.120;5.252;2023-02-01T06:12:11;1999.90;;;999.90;;
17133;SDS011;8682;52.120;5.252;2023-02-01T06:14:39;1999.90;;;999.90;;
17133;SDS011;8682;52.120;5.252;2023-02-01T06:17:08;1392.33;;;638.70;;
17133;SDS011;8682;52.120;5.252;2023-02-01T06:19:35;1999.90;;;999.90;;
17133;SDS011;8682;52.120;5.252;2023-02-01T06:22:02;1999.90;;;999.90;;
17133;SDS011;8682;52.120;5.252;2023-02-01T06:24:31;1556.47;;;661.87;;
17133;SDS011;8682;52.120;5.252;2023-02-01T06:26:58;1999.90;;;999.90;;
17133;SDS011;8682;52.120;5.252;2023-02-01T06:29:26;1999.90;;;999.90;;
17133;SDS011;8682;52.120;5.252;2023-02-01T06:31:54;1999.90;;;999.90;;
17133;SDS011;8682;52.120;5.252;2023-02-01T06:34:21;1999.90;;;999.90;;
17133;SDS011;8682;52.120;5.252;2023-02-01T06:36:48;1999.90;;;999.90;;
17133;SDS011;8682;52.120;5.252;2023-02-01T06:39:15;1999.90;;;999.90;;
17133;SDS011;8682;52.120;5.252;2023-02-01T06:41:45;1999.90;;;999.90;;
17133;SDS011;8682;52.120;5.252;2023-02-01T06:44:12;1999.90;;;999.90;;
17133;SDS011;8682;52.120;5.252;2023-02-01T06:46:41;1999.90;;;999.90;;
17133;SDS011;8682;52.120;5.252;2023-02-01T06:49:08;1999.90;;;999.90;;
17133;SDS011;8682;52.120;5.252;2023-02-01T06:51:35;1999.90;;;999.90;;
17133;SDS011;8682;52.120;5.252;2023-02-01T06:54:03;1999.90;;;999.90;;
17133;SDS011;8682;52.120;5.252;2023-02-01T06:56:30;1999.90;;;999.90;;
17133;SDS011;8682;52.120;5.252;2023-02-01T06:58:57;1999.90;;;999.90;;
17133;SDS011;8682;52.120;5.252;2023-02-01T07:01:25;1999.90;;;999.90;;
17133;SDS011;8682;52.120;5.252;2023-02-01T07:03:54;1999.90;;;999.90;;
17133;SDS011;8682;52.120;5.252;2023-02-01T07:06:21;1999.90;;;999.90;;
17133;SDS011;8682;52.120;5.252;2023-02-01T07:08:48;1999.90;;;999.90;;
17133;SDS011;8682;52.120;5.252;2023-02-01T07:11:16;1598.13;;;750.13;;
17133;SDS011;8682;52.120;5.252;2023-02-01T07:13:44;1999.90;;;999.90;;
17133;SDS011;8682;52.120;5.252;2023-02-01T07:16:12;1999.90;;;999.90;;
17133;SDS011;8682;52.120;5.252;2023-02-01T07:18:39;1999.90;;;999.90;;
17133;SDS011;8682;52.120;5.252;2023-02-01T07:21:08;1999.90;;;999.90;;
17133;SDS011;8682;52.120;5.252;2023-02-01T07:23:36;1999.90;;;999.90;;
17133;SDS011;8682;52.120;5.252;2023-02-01T07:26:04;1999.90;;;999.90;;
17133;SDS011;8682;52.120;5.252;2023-02-01T07:28:33;1999.90;;;999.90;;
17133;SDS011;8682;52.120;5.252;2023-02-01T07:31:03;1999.90;;;999.90;;
17133;SDS011;8682;52.120;5.252;2023-02-01T07:33:30;1999.90;;;999.90;;
17133;SDS011;8682;52.120;5.252;2023-02-01T07:35:57;1999.90;;;999.90;;
17133;SDS011;8682;52.120;5.252;2023-02-01T07:38:28;1999.90;;;999.90;;
17133;SDS011;8682;52.120;5.252;2023-02-01T07:40:56;1999.90;;;999.90;;
17133;SDS011;8682;52.120;5.252;2023-02-01T07:43:24;1999.90;;;999.90;;
17133;SDS011;8682;52.120;5.252;2023-02-01T07:45:51;1999.90;;;999.90;;
17133;SDS011;8682;52.120;5.252;2023-02-01T07:48:19;1999.90;;;999.90;;
17133;SDS011;8682;52.120;5.252;2023-02-01T07:50:46;1999.90;;;999.90;;
17133;SDS011;8682;52.120;5.252;2023-02-01T07:53:13;1518.93;;;593.60;;
17133;SDS011;8682;52.120;5.252;2023-02-01T07:55:42;1999.90;;;999.90;;
17133;SDS011;8682;52.120;5.252;2023-02-01T07:58:09;1999.90;;;999.90;;
17133;SDS011;8682;52.120;5.252;2023-02-01T08:00:36;1999.90;;;999.90;;
17133;SDS011;8682;52.120;5.252;2023-02-01T08:03:21;1999.90;;;999.90;;
17133;SDS011;8682;52.120;5.252;2023-02-01T08:05:48;1999.90;;;999.90;;
17133;SDS011;8682;52.120;5.252;2023-02-01T08:08:15;1999.90;;;999.90;;
17133;SDS011;8682;52.120;5.252;2023-02-01T08:10:44;1589.83;;;752.03;;
17133;SDS011;8682;52.120;5.252;2023-02-01T08:13:11;1999.90;;;999.90;;
17133;SDS011;8682;52.120;5.252;2023-02-01T08:15:38;1999.90;;;999.90;;
17133;SDS011;8682;52.120;5.252;2023-02-01T08:18:05;1999.90;;;999.90;;
17133;SDS011;8682;52.120;5.252;2023-02-01T08:20:33;1999.90;;;999.90;;
17133;SDS011;8682;52.120;5.252;2023-02-01T08:23:01;1999.90;;;999.90;;
17133;SDS011;8682;52.120;5.252;2023-02-01T08:25:28;1999.90;;;999.90;;
17133;SDS011;8682;52.120;5.252;2023-02-01T08:27:56;1999.90;;;999.90;;
17133;SDS011;8682;52.120;5.252;2023-02-01T08:30:23;1999.90;;;999.90;;
17133;SDS011;8682;52.120;5.252;2023-02-01T08:32:52;1999.90;;;999.90;;
17133;SDS011;8682;52.120;5.252;2023-02-01T08:35:19;1999.90;;;999.90;;
17133;SDS011;8682;52.120;5.252;2023-02-01T08:37:46;1999.90;;;999.90;;
17133;SDS011;8682;52.120;5.252;2023-02-01T08:40:14;1999.90;;;999.90;;
17133;SDS011;8682;52.120;5.252;2023-02-01T08:42:41;1999.90;;;999.90;;
17133;SDS011;8682;52.120;5.252;2023-02-01T08:45:19;1999.90;;;999.90;;
17133;SDS011;8682;52.120;5.252;2023-02-01T08:47:46;1999.90;;;999.90;;
17133;SDS011;8682;52.120;5.252;2023-02-01T08:50:14;1999.90;;;999.90;;
17133;SDS011;8682;52.120;5.252;2023-02-01T08:52:41;1999.90;;;999.90;;
17133;SDS011;8682;52.120;5.252;2023-02-01T08:55:09;1468.37;;;711.90;;
17133;SDS011;8682;52.120;5.252;2023-02-01T08:57:36;1999.90;;;999.90;;
17133;SDS011;8682;52.120;5.252;2023-02-01T09:00:04;1999.90;;;999.90;;
17133;SDS011;8682;52.120;5.252;2023-02-01T09:02:33;1999.90;;;999.90;;
17133;SDS011;8682;52.120;5.252;2023-02-01T09:05:00;1999.90;;;999.90;;
17133;SDS011;8682;52.120;5.252;2023-02-01T09:07:27;1999.90;;;999.90;;
17133;SDS011;8682;52.120;5.252;2023-02-01T09:09:54;1999.90;;;999.90;;
17133;SDS011;8682;52.120;5.252;2023-02-01T09:12:26;1999.90;;;999.90;;
17133;SDS011;8682;52.120;5.252;2023-02-01T09:14:53;1999.90;;;999.90;;
17133;SDS011;8682;52.120;5.252;2023-02-01T09:17:20;1999.90;;;999.90;;
17133;SDS011;8682;52.120;5.252;2023-02-01T09:19:49;1893.53;;;825.80;;
17133;SDS011;8682;52.120;5.252;2023-02-01T09:22:16;1452.33;;;531.80;;
17133;SDS011;8682;52.120;5.252;2023-02-01T09:24:43;1214.90;;;650.00;;
17133;SDS011;8682;52.120;5.252;2023-02-01T09:27:10;672.87;;;378.17;;
17133;SDS011;8682;52.120;5.252;2023-02-01T09:29:38;571.70;;;317.93;;
17133;SDS011;8682;52.120;5.252;2023-02-01T09:32:05;526.70;;;235.33;;
17133;SDS011;8682;52.120;5.252;2023-02-01T09:34:32;490.73;;;270.73;;
17133;SDS011;8682;52.120;5.252;2023-02-01T09:37:01;722.30;;;329.67;;
17133;SDS011;8682;52.120;5.252;2023-02-01T09:39:28;877.47;;;435.60;;
17133;SDS011;8682;52.120;5.252;2023-02-01T09:41:58;914.20;;;433.40;;
17133;SDS011;8682;52.120;5.252;2023-02-01T09:44:30;742.70;;;376.20;;
17133;SDS011;8682;52.120;5.252;2023-02-01T09:46:58;968.63;;;411.67;;
17133;SDS011;8682;52.120;5.252;2023-02-01T09:49:27;1417.37;;;648.10;;
17133;SDS011;8682;52.120;5.252;2023-02-01T09:51:55;1035.67;;;524.63;;
17133;SDS011;8682;52.120;5.252;2023-02-01T09:54:25;1292.50;;;521.87;;
17133;SDS011;8682;52.120;5.252;2023-02-01T09:56:53;1285.13;;;605.03;;
17133;SDS011;8682;52.120;5.252;2023-02-01T09:59:28;1264.77;;;601.77;;
17133;SDS011;8682;52.120;5.252;2023-02-01T10:01:56;498.27;;;212.90;;
17133;SDS011;8682;52.120;5.252;2023-02-01T10:04:24;1045.50;;;453.03;;
17133;SDS011;8682;52.120;5.252;2023-02-01T10:06:55;1488.30;;;533.67;;
17133;SDS011;8682;52.120;5.252;2023-02-01T10:09:28;1662.87;;;735.93;;
17133;SDS011;8682;52.120;5.252;2023-02-01T10:12:14;1772.17;;;818.40;;
17133;SDS011;8682;52.120;5.252;2023-02-01T10:14:47;1999.90;;;999.90;;
17133;SDS011;8682;52.120;5.252;2023-02-01T10:17:20;1291.77;;;565.07;;
17133;SDS011;8682;52.120;5.252;2023-02-01T10:19:50;1999.90;;;999.90;;
17133;SDS011;8682;52.120;5.252;2023-02-01T10:22:25;1999.90;;;999.90;;
17133;SDS011;8682;52.120;5.252;2023-02-01T10:24:58;1999.90;;;999.90;;
17133;SDS011;8682;52.120;5.252;2023-02-01T10:27:27;1999.90;;;999.90;;
17133;SDS011;8682;52.120;5.252;2023-02-01T10:29:57;1999.90;;;999.90;;
17133;SDS011;8682;52.120;5.252;2023-02-01T10:32:28;1999.90;;;999.90;;
17133;SDS011;8682;52.120;5.252;2023-02-01T10:34:57;1999.90;;;999.90;;
17133;SDS011;8682;52.120;5.252;2023-02-01T10:37:27;1999.90;;;999.90;;
17133;SDS011;8682;52.120;5.252;2023-02-01T10:39:55;1999.90;;;999.90;;
17133;SDS011;8682;52.120;5.252;2023-02-01T10:42:25;1999.90;;;999.90;;
17133;SDS011;8682;52.120;5.252;2023-02-01T10:44:53;1999.90;;;999.90;;
17133;SDS011;8682;52.120;5.252;2023-02-01T10:47:21;1999.90;;;999.90;;
17133;SDS011;8682;52.120;5.252;2023-02-01T10:49:49;1999.90;;;999.90;;
17133;SDS011;8682;52.120;5.252;2023-02-01T10:52:20;1999.90;;;999.90;;
17133;SDS011;8682;52.120;5.252;2023-02-01T10:54:49;1999.90;;;999.90;;
17133;SDS011;8682;52.120;5.252;2023-02-01T10:57:20;1999.90;;;999.90;;
17133;SDS011;8682;52.120;5.252;2023-02-01T10:59:50;1999.90;;;999.90;;
17133;SDS011;8682;52.120;5.252;2023-02-01T11:02:23;1999.90;;;999.90;;
17133;SDS011;8682;52.120;5.252;2023-02-01T11:04:58;1999.90;;;999.90;;
17133;SDS011;8682;52.120;5.252;2023-02-01T11:07:25;1999.90;;;999.90;;
17133;SDS011;8682;52.120;5.252;2023-02-01T11:09:53;1999.90;;;999.90;;
17133;SDS011;8682;52.120;5.252;2023-02-01T11:12:28;1708.83;;;686.63;;
17133;SDS011;8682;52.120;5.252;2023-02-01T11:14:58;1999.90;;;999.90;;
17133;SDS011;8682;52.120;5.252;2023-02-01T11:17:26;1999.90;;;999.90;;
17133;SDS011;8682;52.120;5.252;2023-02-01T11:19:56;1999.90;;;999.90;;
17133;SDS011;8682;52.120;5.252;2023-02-01T11:22:24;1290.97;;;517.03;;
17133;SDS011;8682;52.120;5.252;2023-02-01T11:24:51;1999.90;;;999.90;;
17133;SDS011;8682;52.120;5.252;2023-02-01T11:27:20;1999.90;;;999.90;;
17133;SDS011;8682;52.120;5.252;2023-02-01T11:29:49;1999.90;;;999.90;;
17133;SDS011;8682;52.120;5.252;2023-02-01T11:32:19;1314.20;;;560.03;;
17133;SDS011;8682;52.120;5.252;2023-02-01T11:34:47;1999.90;;;999.90;;
17133;SDS011;8682;52.120;5.252;2023-02-01T11:37:17;1999.90;;;999.90;;
17133;SDS011;8682;52.120;5.252;2023-02-01T11:39:52;1999.90;;;999.90;;
17133;SDS011;8682;52.120;5.252;2023-02-01T11:42:20;1683.13;;;653.93;;
17133;SDS011;8682;52.120;5.252;2023-02-01T11:44:47;1999.90;;;999.90;;
17133;SDS011;8682;52.120;5.252;2023-02-01T11:47:20;1999.90;;;999.90;;
17133;SDS011;8682;52.120;5.252;2023-02-01T11:49:47;1794.77;;;701.17;;
17133;SDS011;8682;52.120;5.252;2023-02-01T11:52:16;1962.83;;;820.37;;
17133;SDS011;8682;52.120;5.252;2023-02-01T11:54:58;1523.37;;;561.87;;
17133;SDS011;8682;52.120;5.252;2023-02-01T11:57:38;1638.23;;;691.27;;
17133;SDS011;8682;52.120;5.252;2023-02-01T12:00:14;1529.63;;;610.63;;
17133;SDS011;8682;52.120;5.252;2023-02-01T12:08:20;1372.63;;;590.53;;
17133;SDS011;8682;52.120;5.252;2023-02-01T12:10:52;1448.03;;;534.10;;
17133;SDS011;8682;52.120;5.252;2023-02-01T12:13:25;1409.97;;;653.80;;
17133;SDS011;8682;52.120;5.252;2023-02-01T12:15:58;1309.60;;;495.83;;
17133;SDS011;8682;52.120;5.252;2023-02-01T12:21:20;953.90;;;461.20;;
17133;SDS011;8682;52.120;5.252;2023-02-01T12:26:40;524.17;;;277.00;;
17133;SDS011;8682;52.120;5.252;2023-02-01T12:34:47;1060.00;;;445.10;;
17133;SDS011;8682;52.120;5.252;2023-02-01T12:37:19;1367.67;;;615.60;;
17133;SDS011;8682;52.120;5.252;2023-02-01T12:39:50;1556.80;;;650.10;;
17133;SDS011;8682;52.120;5.252;2023-02-01T12:42:22;1582.90;;;725.57;;
17133;SDS011;8682;52.120;5.252;2023-02-01T12:44:51;1473.90;;;540.23;;
17133;SDS011;8682;52.120;5.252;2023-02-01T12:47:22;1999.90;;;999.90;;
17133;SDS011;8682;52.120;5.252;2023-02-01T12:49:53;1575.23;;;663.37;;
17133;SDS011;8682;52.120;5.252;2023-02-01T12:52:23;1999.90;;;999.90;;
17133;SDS011;8682;52.120;5.252;2023-02-01T12:54:53;1999.90;;;999.90;;
17133;SDS011;8682;52.120;5.252;2023-02-01T12:57:25;1999.90;;;999.90;;
17133;SDS011;8682;52.120;5.252;2023-02-01T12:59:54;1620.73;;;746.70;;
17133;SDS011;8682;52.120;5.252;2023-02-01T13:02:25;1999.90;;;999.90;;
17133;SDS011;8682;52.120;5.252;2023-02-01T13:04:56;1401.90;;;661.63;;
17133;SDS011;8682;52.120;5.252;2023-02-01T13:07:27;1999.90;;;999.90;;
17133;SDS011;8682;52.120;5.252;2023-02-01T13:09:57;1858.30;;;759.70;;
17133;SDS011;8682;52.120;5.252;2023-02-01T13:12:28;1999.90;;;999.90;;
17133;SDS011;8682;52.120;5.252;2023-02-01T13:14:58;1999.90;;;999.90;;
17133;SDS011;8682;52.120;5.252;2023-02-01T13:17:28;1999.90;;;999.90;;
17133;SDS011;8682;52.120;5.252;2023-02-01T13:19:57;1999.90;;;999.90;;
17133;SDS011;8682;52.120;5.252;2023-02-01T13:22:27;1950.43;;;764.40;;
17133;SDS011;8682;52.120;5.252;2023-02-01T13:24:56;1999.90;;;999.90;;
17133;SDS011;8682;52.120;5.252;2023-02-01T13:27:25;1635.53;;;708.67;;
17133;SDS011;8682;52.120;5.252;2023-02-01T13:29:57;1999.90;;;999.90;;
17133;SDS011;8682;52.120;5.252;2023-02-01T13:32:39;1999.90;;;999.90;;
17133;SDS011;8682;52.120;5.252;2023-02-01T13:35:17;1999.90;;;999.90;;
17133;SDS011;8682;52.120;5.252;2023-02-01T13:40:36;1407.27;;;574.83;;
17133;SDS011;8682;52.120;5.252;2023-02-01T13:43:05;1616.50;;;708.53;;
17133;SDS011;8682;52.120;5.252;2023-02-01T13:45:35;1769.30;;;592.63;;
17133;SDS011;8682;52.120;5.252;2023-02-01T13:48:04;1999.90;;;999.90;;
17133;SDS011;8682;52.120;5.252;2023-02-01T13:50:32;1999.90;;;999.90;;
17133;SDS011;8682;52.120;5.252;2023-02-01T13:53:03;1999.90;;;999.90;;
17133;SDS011;8682;52.120;5.252;2023-02-01T13:55:32;1999.90;;;999.90;;
17133;SDS011;8682;52.120;5.252;2023-02-01T13:58:01;1820.37;;;839.17;;
17133;SDS011;8682;52.120;5.252;2023-02-01T14:00:29;1999.90;;;999.90;;
17133;SDS011;8682;52.120;5.252;2023-02-01T14:08:39;1999.90;;;999.90;;
17133;SDS011;8682;52.120;5.252;2023-02-01T14:11:07;1999.90;;;999.90;;
17133;SDS011;8682;52.120;5.252;2023-02-01T14:13:53;1999.90;;;999.90;;
17133;SDS011;8682;52.120;5.252;2023-02-01T14:16:21;1999.90;;;999.90;;
17133;SDS011;8682;52.120;5.252;2023-02-01T14:18:58;1999.90;;;999.90;;
17133;SDS011;8682;52.120;5.252;2023-02-01T14:21:27;1999.90;;;999.90;;
17133;SDS011;8682;52.120;5.252;2023-02-01T14:23:57;1723.23;;;674.97;;
17133;SDS011;8682;52.120;5.252;2023-02-01T14:26:25;1999.90;;;999.90;;
17133;SDS011;8682;52.120;5.252;2023-02-01T14:29:00;1999.90;;;999.90;;
17133;SDS011;8682;52.120;5.252;2023-02-01T14:34:26;1999.90;;;999.90;;
17133;SDS011;8682;52.120;5.252;2023-02-01T14:36:55;1726.33;;;784.57;;
17133;SDS011;8682;52.120;5.252;2023-02-01T14:39:30;1999.90;;;999.90;;
17133;SDS011;8682;52.120;5.252;2023-02-01T14:41:59;1999.90;;;999.90;;